sensor_id;sensor_type;location;lat;lon;timestamp;P1;durP1;ratioP1;P2;durP2;ratioP2
4309;SDS011;2168;53.576;9.980;2023-05-20T00:02:15;2.00;;;2.00;;
4309;SDS011;2168;53.576;9.980;2023-05-20T00:04:40;1.93;;;1.93;;
4309;SDS011;2168;53.576;9.980;2023-05-20T00:07:06;2.20;;;2.20;;
4309;SDS011;2168;53.576;9.980;2023-05-20T00:09:31;2.07;;;2.07;;
4309;SDS011;2168;53.576;9.980;2023-05-20T00:11:56;2.17;;;2.17;;
4309;SDS011;2168;53.576;9.980;2023-05-20T00:14:21;2.10;;;2.10;;
4309;SDS011;2168;53.576;9.980;2023-05-20T00:16:47;2.00;;;2.00;;
4309;SDS011;2168;53.576;9.980;2023-05-20T00:19:12;1.97;;;1.97;;
4309;SDS011;2168;53.576;9.980;2023-05-20T00:21:37;2.00;;;2.00;;
4309;SDS011;2168;53.576;9.980;2023-05-20T00:24:02;1.87;;;1.87;;
4309;SDS011;2168;53.576;9.980;2023-05-20T00:26:28;2.13;;;2.13;;
4309;SDS011;2168;53.576;9.980;2023-05-20T00:28:53;2.20;;;2.20;;
4309;SDS011;2168;53.576;9.980;2023-05-20T00:31:18;2.30;;;2.30;;
4309;SDS011;2168;53.576;9.980;2023-05-20T00:33:43;2.20;;;2.20;;
4309;SDS011;2168;53.576;9.980;2023-05-20T00:36:08;2.20;;;2.20;;
4309;SDS011;2168;53.576;9.980;2023-05-20T00:38:34;2.30;;;2.30;;
4309;SDS011;2168;53.576;9.980;2023-05-20T00:40:59;2.13;;;2.13;;
4309;SDS011;2168;53.576;9.980;2023-05-20T00:43:24;2.10;;;2.10;;
4309;SDS011;2168;53.576;9.980;2023-05-20T00:45:51;2.00;;;2.00;;
4309;SDS011;2168;53.576;9.980;2023-05-20T00:48:16;2.30;;;2.30;;
4309;SDS011;2168;53.576;9.980;2023-05-20T00:50:42;2.00;;;2.00;;
4309;SDS011;2168;53.576;9.980;2023-05-20T00:53:07;2.20;;;2.20;;
4309;SDS011;2168;53.576;9.980;2023-05-20T00:55:33;2.03;;;2.03;;
4309;SDS011;2168;53.576;9.980;2023-05-20T00:57:59;2.10;;;2.10;;
4309;SDS011;2168;53.576;9.980;2023-05-20T01:00:25;1.90;;;1.90;;
4309;SDS011;2168;53.576;9.980;2023-05-20T01:02:50;1.90;;;1.90;;
4309;SDS011;2168;53.576;9.980;2023-05-20T01:05:15;2.30;;;2.30;;
4309;SDS011;2168;53.576;9.980;2023-05-20T01:07:40;1.93;;;1.93;;
4309;SDS011;2168;53.576;9.980;2023-05-20T01:10:06;2.07;;;2.07;;
4309;SDS011;2168;53.576;9.980;2023-05-20T01:12:34;2.10;;;2.10;;
4309;SDS011;2168;53.576;9.980;2023-05-20T01:15:04;2.10;;;2.10;;
4309;SDS011;2168;53.576;9.980;2023-05-20T01:17:30;2.17;;;2.17;;
4309;SDS011;2168;53.576;9.980;2023-05-20T01:19:57;2.30;;;2.30;;
4309;SDS011;2168;53.576;9.980;2023-05-20T01:22:27;2.10;;;2.10;;
4309;SDS011;2168;53.576;9.980;2023-05-20T01:24:52;2.30;;;2.30;;
4309;SDS011;2168;53.576;9.980;2023-05-20T01:27:18;2.13;;;2.13;;
4309;SDS011;2168;53.576;9.980;2023-05-20T01:29:44;1.87;;;1.87;;
4309;SDS011;2168;53.576;9.980;2023-05-20T01:32:14;2.00;;;2.00;;
4309;SDS011;2168;53.576;9.980;2023-05-20T01:34:40;2.10;;;2.10;;
4309;SDS011;2168;53.576;9.980;2023-05-20T01:37:06;2.10;;;2.10;;
4309;SDS011;2168;53.576;9.980;2023-05-20T01:39:33;2.00;;;2.00;;
4309;SDS011;2168;53.576;9.980;2023-05-20T01:41:59;1.90;;;1.90;;
4309;SDS011;2168;53.576;9.980;2023-05-20T01:44:26;2.10;;;2.10;;
4309;SDS011;2168;53.576;9.980;2023-05-20T01:46:51;2.10;;;2.10;;
4309;SDS011;2168;53.576;9.980;2023-05-20T01:49:16;2.20;;;2.20;;
4309;SDS011;2168;53.576;9.980;2023-05-20T01:51:41;2.20;;;2.20;;
4309;SDS011;2168;53.576;9.980;2023-05-20T01:54:07;2.10;;;2.10;;
4309;SDS011;2168;53.576;9.980;2023-05-20T01:56:32;2.00;;;2.00;;
4309;SDS011;2168;53.576;9.980;2023-05-20T01:58:58;1.80;;;1.80;;
4309;SDS011;2168;53.576;9.980;2023-05-20T02:01:23;1.90;;;1.90;;
4309;SDS011;2168;53.576;9.980;2023-05-20T02:03:48;1.57;;;1.57;;
4309;SDS011;2168;53.576;9.980;2023-05-20T02:06:13;1.50;;;1.50;;
4309;SDS011;2168;53.576;9.980;2023-05-20T02:08:38;1.30;;;1.30;;
4309;SDS011;2168;53.576;9.980;2023-05-20T02:11:04;1.10;;;1.10;;
4309;SDS011;2168;53.576;9.980;2023-05-20T02:13:29;1.17;;;1.17;;
4309;SDS011;2168;53.576;9.980;2023-05-20T02:15:55;1.00;;;1.00;;
4309;SDS011;2168;53.576;9.980;2023-05-20T02:18:20;1.00;;;1.00;;
4309;SDS011;2168;53.576;9.980;2023-05-20T02:20:45;0.97;;;0.97;;
4309;SDS011;2168;53.576;9.980;2023-05-20T02:23:10;0.90;;;0.90;;
4309;SDS011;2168;53.576;9.980;2023-05-20T02:25:36;0.90;;;0.90;;
4309;SDS011;2168;53.576;9.980;2023-05-20T02:28:01;1.00;;;1.00;;
4309;SDS011;2168;53.576;9.980;2023-05-20T02:30:29;0.80;;;0.80;;
4309;SDS011;2168;53.576;9.980;2023-05-20T02:32:54;0.83;;;0.83;;
4309;SDS011;2168;53.576;9.980;2023-05-20T02:35:21;0.63;;;0.63;;
4309;SDS011;2168;53.576;9.980;2023-05-20T02:37:46;0.77;;;0.77;;
4309;SDS011;2168;53.576;9.980;2023-05-20T02:40:12;0.70;;;0.70;;
4309;SDS011;2168;53.576;9.980;2023-05-20T02:42:37;0.70;;;0.70;;
4309;SDS011;2168;53.576;9.980;2023-05-20T02:45:02;0.70;;;0.70;;
4309;SDS011;2168;53.576;9.980;2023-05-20T02:47:27;0.60;;;0.60;;
4309;SDS011;2168;53.576;9.980;2023-05-20T02:49:53;0.60;;;0.60;;
4309;SDS011;2168;53.576;9.980;2023-05-20T02:52:18;0.63;;;0.63;;
4309;SDS011;2168;53.576;9.980;2023-05-20T02:54:43;0.70;;;0.70;;
4309;SDS011;2168;53.576;9.980;2023-05-20T02:57:08;0.60;;;0.60;;
4309;SDS011;2168;53.576;9.980;2023-05-20T02:59:34;0.60;;;0.60;;
4309;SDS011;2168;53.576;9.980;2023-05-20T03:01:59;0.50;;;0.50;;
4309;SDS011;2168;53.576;9.980;2023-05-20T03:04:24;0.63;;;0.63;;
4309;SDS011;2168;53.576;9.980;2023-05-20T03:06:50;0.60;;;0.60;;
4309;SDS011;2168;53.576;9.980;2023-05-20T03:09:16;0.70;;;0.70;;
4309;SDS011;2168;53.576;9.980;2023-05-20T03:11:42;0.40;;;0.40;;
4309;SDS011;2168;53.576;9.980;2023-05-20T03:14:07;0.50;;;0.50;;
4309;SDS011;2168;53.576;9.980;2023-05-20T03:16:33;0.60;;;0.60;;
4309;SDS011;2168;53.576;9.980;2023-05-20T03:18:59;0.60;;;0.60;;
4309;SDS011;2168;53.576;9.980;2023-05-20T03:21:24;0.50;;;0.50;;
4309;SDS011;2168;53.576;9.980;2023-05-20T03:23:50;0.50;;;0.50;;
4309;SDS011;2168;53.576;9.980;2023-05-20T03:26:15;0.50;;;0.50;;
4309;SDS011;2168;53.576;9.980;2023-05-20T03:28:41;0.60;;;0.60;;
4309;SDS011;2168;53.576;9.980;2023-05-20T03:31:06;0.53;;;0.53;;
4309;SDS011;2168;53.576;9.980;2023-05-20T03:33:32;0.53;;;0.53;;
4309;SDS011;2168;53.576;9.980;2023-05-20T03:35:58;0.60;;;0.60;;
4309;SDS011;2168;53.576;9.980;2023-05-20T03:38:23;0.50;;;0.50;;
4309;SDS011;2168;53.576;9.980;2023-05-20T03:40:48;0.50;;;0.50;;
4309;SDS011;2168;53.576;9.980;2023-05-20T03:43:13;0.50;;;0.50;;
4309;SDS011;2168;53.576;9.980;2023-05-20T03:45:38;0.60;;;0.60;;
4309;SDS011;2168;53.576;9.980;2023-05-20T03:48:04;0.50;;;0.50;;
4309;SDS011;2168;53.576;9.980;2023-05-20T03:50:29;0.50;;;0.50;;
4309;SDS011;2168;53.576;9.980;2023-05-20T03:52:55;0.50;;;0.50;;
4309;SDS011;2168;53.576;9.980;2023-05-20T03:55:20;0.50;;;0.50;;
4309;SDS011;2168;53.576;9.980;2023-05-20T03:57:45;0.40;;;0.40;;
4309;SDS011;2168;53.576;9.980;2023-05-20T04:00:10;0.40;;;0.40;;
4309;SDS011;2168;53.576;9.980;2023-05-20T04:02:38;0.50;;;0.50;;
4309;SDS011;2168;53.576;9.980;2023-05-20T04:05:03;0.50;;;0.50;;
4309;SDS011;2168;53.576;9.980;2023-05-20T04:07:28;0.50;;;0.50;;
4309;SDS011;2168;53.576;9.980;2023-05-20T04:09:54;0.40;;;0.40;;
4309;SDS011;2168;53.576;9.980;2023-05-20T04:12:19;0.40;;;0.40;;
4309;SDS011;2168;53.576;9.980;2023-05-20T04:14:44;0.50;;;0.50;;
4309;SDS011;2168;53.576;9.980;2023-05-20T04:17:09;0.40;;;0.40;;
4309;SDS011;2168;53.576;9.980;2023-05-20T04:19:35;0.50;;;0.50;;
4309;SDS011;2168;53.576;9.980;2023-05-20T04:22:02;0.40;;;0.40;;
4309;SDS011;2168;53.576;9.980;2023-05-20T04:24:28;0.40;;;0.40;;
4309;SDS011;2168;53.576;9.980;2023-05-20T04:26:53;0.50;;;0.50;;
4309;SDS011;2168;53.576;9.980;2023-05-20T04:29:18;0.40;;;0.40;;
4309;SDS011;2168;53.576;9.980;2023-05-20T04:31:46;0.40;;;0.40;;
4309;SDS011;2168;53.576;9.980;2023-05-20T04:34:12;0.40;;;0.40;;
4309;SDS011;2168;53.576;9.980;2023-05-20T04:36:37;0.40;;;0.40;;
4309;SDS011;2168;53.576;9.980;2023-05-20T04:39:03;0.37;;;0.37;;
4309;SDS011;2168;53.576;9.980;2023-05-20T04:41:32;0.50;;;0.50;;
4309;SDS011;2168;53.576;9.980;2023-05-20T04:43:57;0.47;;;0.47;;
4309;SDS011;2168;53.576;9.980;2023-05-20T04:46:25;0.30;;;0.30;;
4309;SDS011;2168;53.576;9.980;2023-05-20T04:48:51;0.40;;;0.40;;
4309;SDS011;2168;53.576;9.980;2023-05-20T04:51:16;0.40;;;0.40;;
4309;SDS011;2168;53.576;9.980;2023-05-20T04:53:41;0.30;;;0.30;;
4309;SDS011;2168;53.576;9.980;2023-05-20T04:56:07;0.40;;;0.40;;
4309;SDS011;2168;53.576;9.980;2023-05-20T04:58:32;0.50;;;0.50;;
4309;SDS011;2168;53.576;9.980;2023-05-20T05:00:58;0.40;;;0.40;;
4309;SDS011;2168;53.576;9.980;2023-05-20T05:03:23;0.30;;;0.30;;
4309;SDS011;2168;53.576;9.980;2023-05-20T05:05:48;0.40;;;0.40;;
4309;SDS011;2168;53.576;9.980;2023-05-20T05:08:13;0.40;;;0.40;;
4309;SDS011;2168;53.576;9.980;2023-05-20T05:10:38;0.40;;;0.40;;
4309;SDS011;2168;53.576;9.980;2023-05-20T05:13:04;0.40;;;0.40;;
4309;SDS011;2168;53.576;9.980;2023-05-20T05:15:29;0.40;;;0.40;;
4309;SDS011;2168;53.576;9.980;2023-05-20T05:17:54;0.40;;;0.40;;
4309;SDS011;2168;53.576;9.980;2023-05-20T05:20:20;0.40;;;0.40;;
4309;SDS011;2168;53.576;9.980;2023-05-20T05:22:45;0.40;;;0.40;;
4309;SDS011;2168;53.576;9.980;2023-05-20T05:25:11;0.50;;;0.50;;
4309;SDS011;2168;53.576;9.980;2023-05-20T05:27:36;0.40;;;0.40;;
4309;SDS011;2168;53.576;9.980;2023-05-20T05:30:02;0.40;;;0.40;;
4309;SDS011;2168;53.576;9.980;2023-05-20T05:32:27;0.40;;;0.40;;
4309;SDS011;2168;53.576;9.980;2023-05-20T05:34:52;0.30;;;0.30;;
4309;SDS011;2168;53.576;9.980;2023-05-20T05:37:18;0.30;;;0.30;;
4309;SDS011;2168;53.576;9.980;2023-05-20T05:39:43;0.40;;;0.40;;
4309;SDS011;2168;53.576;9.980;2023-05-20T05:42:08;0.40;;;0.40;;
4309;SDS011;2168;53.576;9.980;2023-05-20T05:44:33;0.30;;;0.30;;
4309;SDS011;2168;53.576;9.980;2023-05-20T05:46:58;0.40;;;0.40;;
4309;SDS011;2168;53.576;9.980;2023-05-20T05:49:24;0.40;;;0.40;;
4309;SDS011;2168;53.576;9.980;2023-05-20T05:51:50;0.40;;;0.40;;
4309;SDS011;2168;53.576;9.980;2023-05-20T05:54:15;0.40;;;0.40;;
4309;SDS011;2168;53.576;9.980;2023-05-20T05:56:40;0.30;;;0.30;;
4309;SDS011;2168;53.576;9.980;2023-05-20T05:59:06;0.40;;;0.40;;
4309;SDS011;2168;53.576;9.980;2023-05-20T06:01:31;0.40;;;0.40;;
4309;SDS011;2168;53.576;9.980;2023-05-20T06:03:56;0.50;;;0.50;;
4309;SDS011;2168;53.576;9.980;2023-05-20T06:06:21;0.50;;;0.50;;
4309;SDS011;2168;53.576;9.980;2023-05-20T06:08:47;0.40;;;0.40;;
4309;SDS011;2168;53.576;9.980;2023-05-20T06:11:13;0.50;;;0.50;;
4309;SDS011;2168;53.576;9.980;2023-05-20T06:13:38;0.40;;;0.40;;
4309;SDS011;2168;53.576;9.980;2023-05-20T06:16:03;0.40;;;0.40;;
4309;SDS011;2168;53.576;9.980;2023-05-20T06:18:29;0.50;;;0.50;;
4309;SDS011;2168;53.576;9.980;2023-05-20T06:20:55;0.40;;;0.40;;
4309;SDS011;2168;53.576;9.980;2023-05-20T06:23:20;0.40;;;0.40;;
4309;SDS011;2168;53.576;9.980;2023-05-20T06:25:45;0.50;;;0.50;;
4309;SDS011;2168;53.576;9.980;2023-05-20T06:28:11;0.30;;;0.30;;
4309;SDS011;2168;53.576;9.980;2023-05-20T06:30:37;0.50;;;0.50;;
4309;SDS011;2168;53.576;9.980;2023-05-20T06:33:02;0.40;;;0.40;;
4309;SDS011;2168;53.576;9.980;2023-05-20T06:35:27;0.50;;;0.50;;
4309;SDS011;2168;53.576;9.980;2023-05-20T06:37:52;0.40;;;0.40;;
4309;SDS011;2168;53.576;9.980;2023-05-20T06:40:19;0.40;;;0.40;;
4309;SDS011;2168;53.576;9.980;2023-05-20T06:42:44;0.40;;;0.40;;
4309;SDS011;2168;53.576;9.980;2023-05-20T06:45:10;0.50;;;0.50;;
4309;SDS011;2168;53.576;9.980;2023-05-20T06:47:35;0.40;;;0.40;;
4309;SDS011;2168;53.576;9.980;2023-05-20T06:50:00;0.50;;;0.50;;
4309;SDS011;2168;53.576;9.980;2023-05-20T06:52:25;0.50;;;0.50;;
4309;SDS011;2168;53.576;9.980;2023-05-20T06:54:51;0.60;;;0.60;;
4309;SDS011;2168;53.576;9.980;2023-05-20T06:57:16;0.57;;;0.57;;
4309;SDS011;2168;53.576;9.980;2023-05-20T06:59:41;0.60;;;0.60;;
4309;SDS011;2168;53.576;9.980;2023-05-20T07:02:06;0.40;;;0.40;;
4309;SDS011;2168;53.576;9.980;2023-05-20T07:04:32;0.70;;;0.70;;
4309;SDS011;2168;53.576;9.980;2023-05-20T07:06:57;0.60;;;0.60;;
4309;SDS011;2168;53.576;9.980;2023-05-20T07:09:22;0.77;;;0.77;;
4309;SDS011;2168;53.576;9.980;2023-05-20T07:11:47;0.80;;;0.80;;
4309;SDS011;2168;53.576;9.980;2023-05-20T07:14:12;0.70;;;0.70;;
4309;SDS011;2168;53.576;9.980;2023-05-20T07:16:38;0.80;;;0.80;;
4309;SDS011;2168;53.576;9.980;2023-05-20T07:19:03;0.80;;;0.80;;
4309;SDS011;2168;53.576;9.980;2023-05-20T07:21:28;0.80;;;0.80;;
4309;SDS011;2168;53.576;9.980;2023-05-20T07:23:53;0.77;;;0.77;;
4309;SDS011;2168;53.576;9.980;2023-05-20T07:26:19;0.80;;;0.80;;
4309;SDS011;2168;53.576;9.980;2023-05-20T07:28:44;0.90;;;0.90;;
4309;SDS011;2168;53.576;9.980;2023-05-20T07:31:11;0.70;;;0.70;;
4309;SDS011;2168;53.576;9.980;2023-05-20T07:33:36;0.80;;;0.80;;
4309;SDS011;2168;53.576;9.980;2023-05-20T07:36:01;0.70;;;0.70;;
4309;SDS011;2168;53.576;9.980;2023-05-20T07:38:27;0.80;;;0.80;;
4309;SDS011;2168;53.576;9.980;2023-05-20T07:40:52;0.70;;;0.70;;
4309;SDS011;2168;53.576;9.980;2023-05-20T07:43:17;0.70;;;0.70;;
4309;SDS011;2168;53.576;9.980;2023-05-20T07:45:42;0.70;;;0.70;;
4309;SDS011;2168;53.576;9.980;2023-05-20T07:48:07;0.80;;;0.80;;
4309;SDS011;2168;53.576;9.980;2023-05-20T07:50:34;0.90;;;0.90;;
4309;SDS011;2168;53.576;9.980;2023-05-20T07:53:00;0.80;;;0.80;;
4309;SDS011;2168;53.576;9.980;2023-05-20T07:55:25;0.90;;;0.90;;
4309;SDS011;2168;53.576;9.980;2023-05-20T07:57:50;0.90;;;0.90;;
4309;SDS011;2168;53.576;9.980;2023-05-20T08:00:15;0.70;;;0.70;;
4309;SDS011;2168;53.576;9.980;2023-05-20T08:02:41;0.80;;;0.80;;
4309;SDS011;2168;53.576;9.980;2023-05-20T08:05:06;0.90;;;0.90;;
4309;SDS011;2168;53.576;9.980;2023-05-20T08:07:32;0.70;;;0.70;;
4309;SDS011;2168;53.576;9.980;2023-05-20T08:09:57;0.80;;;0.80;;
4309;SDS011;2168;53.576;9.980;2023-05-20T08:12:23;0.90;;;0.90;;
4309;SDS011;2168;53.576;9.980;2023-05-20T08:14:48;0.90;;;0.90;;
4309;SDS011;2168;53.576;9.980;2023-05-20T08:17:13;0.90;;;0.90;;
4309;SDS011;2168;53.576;9.980;2023-05-20T08:19:38;0.87;;;0.87;;
4309;SDS011;2168;53.576;9.980;2023-05-20T08:22:03;0.97;;;0.97;;
4309;SDS011;2168;53.576;9.980;2023-05-20T08:24:30;1.07;;;1.07;;
4309;SDS011;2168;53.576;9.980;2023-05-20T08:26:55;0.90;;;0.90;;
4309;SDS011;2168;53.576;9.980;2023-05-20T08:29:20;1.20;;;1.20;;
4309;SDS011;2168;53.576;9.980;2023-05-20T08:31:45;1.00;;;1.00;;
4309;SDS011;2168;53.576;9.980;2023-05-20T08:34:10;1.10;;;1.10;;
4309;SDS011;2168;53.576;9.980;2023-05-20T08:36:36;1.30;;;1.30;;
4309;SDS011;2168;53.576;9.980;2023-05-20T08:39:01;1.30;;;1.30;;
4309;SDS011;2168;53.576;9.980;2023-05-20T08:41:26;1.40;;;1.40;;
4309;SDS011;2168;53.576;9.980;2023-05-20T08:43:51;1.50;;;1.50;;
4309;SDS011;2168;53.576;9.980;2023-05-20T08:46:17;1.40;;;1.40;;
4309;SDS011;2168;53.576;9.980;2023-05-20T08:48:42;1.40;;;1.40;;
4309;SDS011;2168;53.576;9.980;2023-05-20T08:51:08;1.50;;;1.50;;
4309;SDS011;2168;53.576;9.980;2023-05-20T08:53:34;1.70;;;1.70;;
4309;SDS011;2168;53.576;9.980;2023-05-20T08:56:00;1.50;;;1.50;;
4309;SDS011;2168;53.576;9.980;2023-05-20T08:58:27;1.60;;;1.60;;
4309;SDS011;2168;53.576;9.980;2023-05-20T09:00:53;1.70;;;1.70;;
4309;SDS011;2168;53.576;9.980;2023-05-20T09:03:18;1.63;;;1.63;;
4309;SDS011;2168;53.576;9.980;2023-05-20T09:05:47;1.83;;;1.83;;
4309;SDS011;2168;53.576;9.980;2023-05-20T09:08:13;1.43;;;1.43;;
4309;SDS011;2168;53.576;9.980;2023-05-20T09:10:39;1.67;;;1.67;;
4309;SDS011;2168;53.576;9.980;2023-05-20T09:13:05;1.53;;;1.53;;
4309;SDS011;2168;53.576;9.980;2023-05-20T09:15:31;1.73;;;1.73;;
4309;SDS011;2168;53.576;9.980;2023-05-20T09:18:00;1.90;;;1.90;;
4309;SDS011;2168;53.576;9.980;2023-05-20T09:20:26;1.60;;;1.60;;
4309;SDS011;2168;53.576;9.980;2023-05-20T09:22:53;1.50;;;1.50;;
4309;SDS011;2168;53.576;9.980;2023-05-20T09:25:19;1.63;;;1.63;;
4309;SDS011;2168;53.576;9.980;2023-05-20T09:27:45;1.70;;;1.70;;
4309;SDS011;2168;53.576;9.980;2023-05-20T09:30:10;1.70;;;1.70;;
4309;SDS011;2168;53.576;9.980;2023-05-20T09:32:36;1.60;;;1.60;;
4309;SDS011;2168;53.576;9.980;2023-05-20T09:35:02;1.70;;;1.70;;
4309;SDS011;2168;53.576;9.980;2023-05-20T09:37:28;1.70;;;1.70;;
4309;SDS011;2168;53.576;9.980;2023-05-20T09:39:54;1.77;;;1.77;;
4309;SDS011;2168;53.576;9.980;2023-05-20T09:42:24;1.80;;;1.80;;
4309;SDS011;2168;53.576;9.980;2023-05-20T09:44:51;1.63;;;1.63;;
4309;SDS011;2168;53.576;9.980;2023-05-20T09:47:16;1.77;;;1.77;;
4309;SDS011;2168;53.576;9.980;2023-05-20T09:49:42;1.70;;;1.70;;
4309;SDS011;2168;53.576;9.980;2023-05-20T09:52:10;1.53;;;1.53;;
4309;SDS011;2168;53.576;9.980;2023-05-20T09:54:36;1.73;;;1.73;;
4309;SDS011;2168;53.576;9.980;2023-05-20T09:57:01;1.60;;;1.60;;
4309;SDS011;2168;53.576;9.980;2023-05-20T09:59:27;1.70;;;1.70;;
4309;SDS011;2168;53.576;9.980;2023-05-20T10:01:53;1.70;;;1.70;;
4309;SDS011;2168;53.576;9.980;2023-05-20T10:04:19;1.70;;;1.70;;
4309;SDS011;2168;53.576;9.980;2023-05-20T10:07:05;1.53;;;1.53;;
4309;SDS011;2168;53.576;9.980;2023-05-20T10:12:08;1.80;;;1.80;;
4309;SDS011;2168;53.576;9.980;2023-05-20T10:17:24;1.80;;;1.80;;
4309;SDS011;2168;53.576;9.980;2023-05-20T10:19:49;1.70;;;1.70;;
4309;SDS011;2168;53.576;9.980;2023-05-20T10:22:28;1.70;;;1.70;;
4309;SDS011;2168;53.576;9.980;2023-05-20T10:25:02;1.83;;;1.83;;
4309;SDS011;2168;53.576;9.980;2023-05-20T10:27:40;1.70;;;1.70;;
4309;SDS011;2168;53.576;9.980;2023-05-20T10:30:13;1.77;;;1.77;;
4309;SDS011;2168;53.576;9.980;2023-05-20T10:32:47;1.50;;;1.50;;
4309;SDS011;2168;53.576;9.980;2023-05-20T10:35:12;1.90;;;1.90;;
4309;SDS011;2168;53.576;9.980;2023-05-20T10:37:41;1.60;;;1.60;;
4309;SDS011;2168;53.576;9.980;2023-05-20T10:40:08;1.87;;;1.87;;
4309;SDS011;2168;53.576;9.980;2023-05-20T10:42:34;1.60;;;1.60;;
4309;SDS011;2168;53.576;9.980;2023-05-20T10:45:00;2.00;;;2.00;;
4309;SDS011;2168;53.576;9.980;2023-05-20T10:47:25;1.73;;;1.73;;
4309;SDS011;2168;53.576;9.980;2023-05-20T10:49:50;2.10;;;2.10;;
4309;SDS011;2168;53.576;9.980;2023-05-20T10:52:16;1.70;;;1.70;;
4309;SDS011;2168;53.576;9.980;2023-05-20T10:54:54;2.03;;;2.03;;
4309;SDS011;2168;53.576;9.980;2023-05-20T10:57:20;1.90;;;1.90;;
4309;SDS011;2168;53.576;9.980;2023-05-20T10:59:45;2.23;;;2.23;;
4309;SDS011;2168;53.576;9.980;2023-05-20T11:02:11;1.97;;;1.97;;
4309;SDS011;2168;53.576;9.980;2023-05-20T11:04:38;1.90;;;1.90;;
4309;SDS011;2168;53.576;9.980;2023-05-20T11:07:07;2.27;;;2.27;;
4309;SDS011;2168;53.576;9.980;2023-05-20T11:09:32;2.20;;;2.20;;
4309;SDS011;2168;53.576;9.980;2023-05-20T11:11:58;2.13;;;2.13;;
4309;SDS011;2168;53.576;9.980;2023-05-20T11:14:23;1.93;;;1.93;;
4309;SDS011;2168;53.576;9.980;2023-05-20T11:16:51;1.97;;;1.97;;
4309;SDS011;2168;53.576;9.980;2023-05-20T11:19:18;1.90;;;1.90;;
4309;SDS011;2168;53.576;9.980;2023-05-20T11:21:43;2.30;;;2.30;;
4309;SDS011;2168;53.576;9.980;2023-05-20T11:24:10;2.13;;;2.13;;
4309;SDS011;2168;53.576;9.980;2023-05-20T11:26:35;2.20;;;2.20;;
4309;SDS011;2168;53.576;9.980;2023-05-20T11:29:00;2.13;;;2.13;;
4309;SDS011;2168;53.576;9.980;2023-05-20T11:31:26;1.93;;;1.93;;
4309;SDS011;2168;53.576;9.980;2023-05-20T11:33:52;2.23;;;2.23;;
4309;SDS011;2168;53.576;9.980;2023-05-20T11:36:17;1.90;;;1.90;;
4309;SDS011;2168;53.576;9.980;2023-05-20T11:38:44;1.80;;;1.80;;
4309;SDS011;2168;53.576;9.980;2023-05-20T11:41:09;2.10;;;2.10;;
4309;SDS011;2168;53.576;9.980;2023-05-20T11:43:35;1.83;;;1.83;;
4309;SDS011;2168;53.576;9.980;2023-05-20T11:46:00;2.00;;;2.00;;
4309;SDS011;2168;53.576;9.980;2023-05-20T11:48:25;2.23;;;2.23;;
4309;SDS011;2168;53.576;9.980;2023-05-20T11:50:52;2.07;;;2.07;;
4309;SDS011;2168;53.576;9.980;2023-05-20T11:53:18;2.10;;;2.10;;
4309;SDS011;2168;53.576;9.980;2023-05-20T11:58:16;2.10;;;2.10;;
4309;SDS011;2168;53.576;9.980;2023-05-20T12:00:42;2.03;;;2.03;;
4309;SDS011;2168;53.576;9.980;2023-05-20T12:03:07;2.10;;;2.10;;
4309;SDS011;2168;53.576;9.980;2023-05-20T12:05:32;2.00;;;2.00;;
4309;SDS011;2168;53.576;9.980;2023-05-20T12:07:57;2.13;;;2.13;;
4309;SDS011;2168;53.576;9.980;2023-05-20T12:10:23;2.27;;;2.27;;
4309;SDS011;2168;53.576;9.980;2023-05-20T12:12:48;1.90;;;1.90;;
4309;SDS011;2168;53.576;9.980;2023-05-20T12:15:13;2.20;;;2.20;;
4309;SDS011;2168;53.576;9.980;2023-05-20T12:17:45;2.10;;;2.10;;
4309;SDS011;2168;53.576;9.980;2023-05-20T12:20:15;2.00;;;2.00;;
4309;SDS011;2168;53.576;9.980;2023-05-20T12:22:41;2.30;;;2.30;;
4309;SDS011;2168;53.576;9.980;2023-05-20T12:25:06;2.43;;;2.43;;
4309;SDS011;2168;53.576;9.980;2023-05-20T12:27:32;2.40;;;2.40;;
4309;SDS011;2168;53.576;9.980;2023-05-20T12:29:57;2.40;;;2.40;;
4309;SDS011;2168;53.576;9.980;2023-05-20T12:32:23;2.20;;;2.20;;
4309;SDS011;2168;53.576;9.980;2023-05-20T12:34:48;2.00;;;2.00;;
4309;SDS011;2168;53.576;9.980;2023-05-20T12:37:13;2.10;;;2.10;;
4309;SDS011;2168;53.576;9.980;2023-05-20T12:39:39;2.00;;;2.00;;
4309;SDS011;2168;53.576;9.980;2023-05-20T12:42:04;2.20;;;2.20;;
4309;SDS011;2168;53.576;9.980;2023-05-20T12:44:29;2.20;;;2.20;;
4309;SDS011;2168;53.576;9.980;2023-05-20T12:46:54;2.30;;;2.30;;
4309;SDS011;2168;53.576;9.980;2023-05-20T12:49:20;2.43;;;2.43;;
4309;SDS011;2168;53.576;9.980;2023-05-20T12:51:45;2.30;;;2.30;;
4309;SDS011;2168;53.576;9.980;2023-05-20T12:54:10;2.53;;;2.53;;
4309;SDS011;2168;53.576;9.980;2023-05-20T12:56:36;2.70;;;2.70;;
4309;SDS011;2168;53.576;9.980;2023-05-20T12:59:01;2.30;;;2.30;;
4309;SDS011;2168;53.576;9.980;2023-05-20T13:01:26;2.40;;;2.40;;
4309;SDS011;2168;53.576;9.980;2023-05-20T13:03:51;2.40;;;2.40;;
4309;SDS011;2168;53.576;9.980;2023-05-20T13:06:17;2.23;;;2.23;;
4309;SDS011;2168;53.576;9.980;2023-05-20T13:08:43;2.40;;;2.40;;
4309;SDS011;2168;53.576;9.980;2023-05-20T13:11:09;2.30;;;2.30;;
4309;SDS011;2168;53.576;9.980;2023-05-20T13:13:34;2.10;;;2.10;;
4309;SDS011;2168;53.576;9.980;2023-05-20T13:15:59;2.10;;;2.10;;
4309;SDS011;2168;53.576;9.980;2023-05-20T13:18:24;2.37;;;2.37;;
4309;SDS011;2168;53.576;9.980;2023-05-20T13:20:50;2.30;;;2.30;;
4309;SDS011;2168;53.576;9.980;2023-05-20T13:23:15;2.40;;;2.40;;
4309;SDS011;2168;53.576;9.980;2023-05-20T13:25:40;2.60;;;2.60;;
4309;SDS011;2168;53.576;9.980;2023-05-20T13:28:05;2.30;;;2.30;;
4309;SDS011;2168;53.576;9.980;2023-05-20T13:30:31;2.70;;;2.70;;
4309;SDS011;2168;53.576;9.980;2023-05-20T13:32:56;2.40;;;2.40;;
4309;SDS011;2168;53.576;9.980;2023-05-20T13:35:21;2.30;;;2.30;;
4309;SDS011;2168;53.576;9.980;2023-05-20T13:37:47;2.10;;;2.10;;
4309;SDS011;2168;53.576;9.980;2023-05-20T13:40:12;2.40;;;2.40;;
4309;SDS011;2168;53.576;9.980;2023-05-20T13:42:37;2.00;;;2.00;;
4309;SDS011;2168;53.576;9.980;2023-05-20T13:45:03;1.73;;;1.73;;
4309;SDS011;2168;53.576;9.980;2023-05-20T13:47:28;1.80;;;1.80;;
4309;SDS011;2168;53.576;9.980;2023-05-20T13:49:53;1.90;;;1.90;;
4309;SDS011;2168;53.576;9.980;2023-05-20T13:52:18;2.00;;;2.00;;
4309;SDS011;2168;53.576;9.980;2023-05-20T13:54:44;2.10;;;2.10;;
4309;SDS011;2168;53.576;9.980;2023-05-20T13:57:11;2.10;;;2.10;;
4309;SDS011;2168;53.576;9.980;2023-05-20T13:59:36;1.90;;;1.90;;
4309;SDS011;2168;53.576;9.980;2023-05-20T14:02:02;1.90;;;1.90;;
4309;SDS011;2168;53.576;9.980;2023-05-20T14:04:27;2.40;;;2.40;;
4309;SDS011;2168;53.576;9.980;2023-05-20T14:06:53;2.30;;;2.30;;
4309;SDS011;2168;53.576;9.980;2023-05-20T14:09:18;2.00;;;2.00;;
4309;SDS011;2168;53.576;9.980;2023-05-20T14:11:43;2.10;;;2.10;;
4309;SDS011;2168;53.576;9.980;2023-05-20T14:14:08;2.20;;;2.20;;
4309;SDS011;2168;53.576;9.980;2023-05-20T14:16:34;2.00;;;2.00;;
4309;SDS011;2168;53.576;9.980;2023-05-20T14:18:59;2.00;;;2.00;;
4309;SDS011;2168;53.576;9.980;2023-05-20T14:21:24;2.00;;;2.00;;
4309;SDS011;2168;53.576;9.980;2023-05-20T14:23:49;2.20;;;2.20;;
4309;SDS011;2168;53.576;9.980;2023-05-20T14:26:15;2.20;;;2.20;;
4309;SDS011;2168;53.576;9.980;2023-05-20T14:28:40;1.90;;;1.90;;
4309;SDS011;2168;53.576;9.980;2023-05-20T14:31:05;2.13;;;2.13;;
4309;SDS011;2168;53.576;9.980;2023-05-20T14:33:30;2.00;;;2.00;;
4309;SDS011;2168;53.576;9.980;2023-05-20T14:35:56;2.00;;;2.00;;
4309;SDS011;2168;53.576;9.980;2023-05-20T14:38:21;2.00;;;2.00;;
4309;SDS011;2168;53.576;9.980;2023-05-20T14:40:47;1.90;;;1.90;;
4309;SDS011;2168;53.576;9.980;2023-05-20T14:43:12;1.60;;;1.60;;
4309;SDS011;2168;53.576;9.980;2023-05-20T14:45:37;1.90;;;1.90;;
4309;SDS011;2168;53.576;9.980;2023-05-20T14:48:02;1.90;;;1.90;;
4309;SDS011;2168;53.576;9.980;2023-05-20T14:50:28;1.97;;;1.97;;
4309;SDS011;2168;53.576;9.980;2023-05-20T14:52:53;1.90;;;1.90;;
4309;SDS011;2168;53.576;9.980;2023-05-20T14:55:18;1.87;;;1.87;;
4309;SDS011;2168;53.576;9.980;2023-05-20T14:57:43;1.90;;;1.90;;
4309;SDS011;2168;53.576;9.980;2023-05-20T15:00:09;1.87;;;1.87;;
4309;SDS011;2168;53.576;9.980;2023-05-20T15:02:34;1.97;;;1.97;;
4309;SDS011;2168;53.576;9.980;2023-05-20T15:04:59;1.73;;;1.73;;
4309;SDS011;2168;53.576;9.980;2023-05-20T15:07:25;1.50;;;1.50;;
4309;SDS011;2168;53.576;9.980;2023-05-20T15:09:50;1.60;;;1.60;;
4309;SDS011;2168;53.576;9.980;2023-05-20T15:12:15;1.50;;;1.50;;
4309;SDS011;2168;53.576;9.980;2023-05-20T15:14:41;1.40;;;1.40;;